createdAt,value
2022-11-21T00:01:38.388Z,8.70
2022-11-21T00:04:40.047Z,11.17
2022-11-21T00:07:41.847Z,9.90
2022-11-21T00:10:43.858Z,11.37
2022-11-21T00:13:45.517Z,10.20
2022-11-21T00:16:47.351Z,9.27
2022-11-21T00:19:49.029Z,11.23
2022-11-21T00:22:50.877Z,10.87
2022-11-21T00:25:52.522Z,10.10
2022-11-21T00:28:54.185Z,11.83
2022-11-21T00:31:55.839Z,9.50
2022-11-21T00:34:57.482Z,10.80
2022-11-21T00:37:59.175Z,10.13
2022-11-21T00:41:00.823Z,12.00
2022-11-21T00:44:02.488Z,11.53
2022-11-21T00:47:04.188Z,12.10
2022-11-21T00:50:06.247Z,12.23
2022-11-21T00:53:07.970Z,11.20
2022-11-21T00:56:09.656Z,12.53
2022-11-21T00:59:11.583Z,12.37
2022-11-21T01:02:13.859Z,12.00
2022-11-21T01:05:15.563Z,12.37
2022-11-21T01:08:17.288Z,15.27
2022-11-21T01:11:20.454Z,12.73
2022-11-21T01:14:22.141Z,14.07
2022-11-21T01:17:23.796Z,14.73
2022-11-21T01:20:25.863Z,14.27
2022-11-21T01:23:28.181Z,11.73
2022-11-21T01:26:31.325Z,16.83
2022-11-21T01:29:32.970Z,16.20
2022-11-21T01:32:34.665Z,14.20
2022-11-21T01:35:36.301Z,14.73
2022-11-21T01:38:39.336Z,15.57
2022-11-21T01:41:43.886Z,14.17
2022-11-21T01:44:47.664Z,18.67
2022-11-21T01:47:49.478Z,16.27
2022-11-21T01:50:51.219Z,15.10
2022-11-21T01:54:07.142Z,16.10
2022-11-21T01:57:15.734Z,16.23
2022-11-21T02:00:26.981Z,15.60
2022-11-21T02:03:32.811Z,14.77
2022-11-21T02:06:37.389Z,16.03
2022-11-21T02:09:42.848Z,19.37
2022-11-21T02:12:50.024Z,17.33
2022-11-21T02:15:51.940Z,17.13
2022-11-21T02:18:53.971Z,19.60
2022-11-21T02:22:15.077Z,18.40
2022-11-21T02:25:26.427Z,15.67
2022-11-21T02:28:28.970Z,19.40
2022-11-21T02:31:30.655Z,17.00
2022-11-21T02:34:33.291Z,17.27
2022-11-21T02:37:37.151Z,21.23
2022-11-21T02:40:44.115Z,18.20
2022-11-21T02:43:55.407Z,19.67
2022-11-21T02:46:57.054Z,19.67
2022-11-21T02:50:12.448Z,17.80
2022-11-21T02:53:17.144Z,18.27
2022-11-21T02:56:18.879Z,16.47
2022-11-21T02:59:20.912Z,20.90
2022-11-21T03:02:22.562Z,23.03
2022-11-21T03:05:24.746Z,21.57
2022-11-21T03:08:26.445Z,24.83
2022-11-21T03:11:28.126Z,22.17
2022-11-21T03:14:30.130Z,25.63
2022-11-21T03:17:32.131Z,20.93
2022-11-21T03:20:34.801Z,20.77
2022-11-21T03:23:36.480Z,24.90
2022-11-21T03:26:38.146Z,21.77
2022-11-21T03:29:39.873Z,20.83
2022-11-21T03:32:41.542Z,21.03
2022-11-21T03:35:43.215Z,18.40
2022-11-21T03:38:44.853Z,20.60
2022-11-21T03:41:46.688Z,19.77
2022-11-21T03:44:48.364Z,27.57
2022-11-21T03:47:49.991Z,19.67
2022-11-21T03:50:51.681Z,22.67
2022-11-21T03:53:53.563Z,22.50
2022-11-21T03:56:55.214Z,20.40
2022-11-21T03:59:56.863Z,25.53
2022-11-21T04:02:58.493Z,25.70
2022-11-21T04:06:00.298Z,24.07
2022-11-21T04:09:02.038Z,18.63
2022-11-21T04:12:07.772Z,25.53
2022-11-21T04:15:13.722Z,19.00
2022-11-21T04:18:16.571Z,20.37
2022-11-21T04:21:18.235Z,21.43
2022-11-21T04:24:19.891Z,21.83
2022-11-21T04:27:21.538Z,19.70
2022-11-21T04:30:23.198Z,21.10
2022-11-21T04:33:24.801Z,21.27
2022-11-21T04:36:26.545Z,25.07
2022-11-21T04:39:28.241Z,22.73
2022-11-21T04:42:29.883Z,21.93
2022-11-21T04:45:31.980Z,23.00
2022-11-21T04:48:33.671Z,22.53
2022-11-21T04:51:35.291Z,22.77
2022-11-21T04:54:36.918Z,21.03
2022-11-21T04:57:38.573Z,20.90
2022-11-21T05:00:40.220Z,22.77
2022-11-21T05:03:41.923Z,25.73
2022-11-21T05:06:43.579Z,22.73
2022-11-21T05:09:45.258Z,27.47
2022-11-21T05:13:05.625Z,20.77
2022-11-21T05:16:07.352Z,23.47
2022-11-21T05:19:09.571Z,21.43
2022-11-21T05:22:11.264Z,23.03
2022-11-21T05:25:12.904Z,22.00
2022-11-21T05:28:14.539Z,25.27
2022-11-21T05:31:16.190Z,23.57
2022-11-21T05:34:17.822Z,23.90
2022-11-21T05:37:21.808Z,22.03
2022-11-21T05:40:24.382Z,23.20
2022-11-21T05:43:44.552Z,25.13
2022-11-21T05:46:46.268Z,24.23
2022-11-21T05:49:47.899Z,27.27
2022-11-21T05:52:49.643Z,25.83
2022-11-21T05:55:51.336Z,21.17
2022-11-21T05:58:57.046Z,27.30
2022-11-21T06:02:17.392Z,31.33
2022-11-21T06:05:19.042Z,25.17
2022-11-21T06:08:20.758Z,22.93
2022-11-21T06:11:22.470Z,23.27
2022-11-21T06:14:24.111Z,24.40
2022-11-21T06:17:25.796Z,24.40
2022-11-21T06:20:27.515Z,24.13
2022-11-21T06:23:29.188Z,28.00
2022-11-21T06:26:30.925Z,24.67
2022-11-21T06:29:32.555Z,23.53
2022-11-21T06:32:37.569Z,27.90
2022-11-21T06:35:39.267Z,25.23
2022-11-21T06:38:41.349Z,23.40
2022-11-21T06:41:43.010Z,26.83
2022-11-21T06:44:44.646Z,27.10
2022-11-21T06:47:46.381Z,30.57
2022-11-21T06:50:48.076Z,30.97
2022-11-21T06:53:57.675Z,25.40
2022-11-21T06:56:59.327Z,29.63
2022-11-21T07:00:01.010Z,28.00
2022-11-21T07:03:03.706Z,27.90
2022-11-21T07:06:06.516Z,29.23
2022-11-21T07:09:32.311Z,27.03
2022-11-21T07:12:50.221Z,27.40
2022-11-21T07:15:54.056Z,26.80
2022-11-21T07:18:55.698Z,27.20
2022-11-21T07:21:57.362Z,27.37
2022-11-21T07:24:59.016Z,28.10
2022-11-21T07:28:02.263Z,29.67
2022-11-21T07:31:08.574Z,32.90
2022-11-21T07:34:13.539Z,31.00
2022-11-21T07:37:15.224Z,33.37
2022-11-21T07:40:17.318Z,31.67
2022-11-21T07:43:19.011Z,31.77
2022-11-21T07:46:20.727Z,41.03
2022-11-21T07:49:22.970Z,30.63
2022-11-21T07:52:25.542Z,34.57
2022-11-21T07:55:30.844Z,37.50
2022-11-21T07:58:32.570Z,34.23
2022-11-21T08:01:34.219Z,27.97
2022-11-21T08:04:35.889Z,35.00
2022-11-21T08:07:37.579Z,25.97
2022-11-21T08:10:41.278Z,28.57
2022-11-21T08:13:42.916Z,32.80
2022-11-21T08:16:44.582Z,31.90
2022-11-21T08:19:46.243Z,29.33
2022-11-21T08:22:48.398Z,29.37
2022-11-21T08:25:51.814Z,25.63
2022-11-21T08:28:59.586Z,27.50
2022-11-21T08:32:03.648Z,28.83
2022-11-21T08:35:06.154Z,37.43
2022-11-21T08:38:08.704Z,35.37
2022-11-21T08:41:31.122Z,34.80
2022-11-21T08:44:34.194Z,35.73
2022-11-21T08:47:35.835Z,35.87
2022-11-21T08:50:37.710Z,30.90
2022-11-21T08:53:39.364Z,41.13
2022-11-21T08:56:41.046Z,29.73
2022-11-21T08:59:42.690Z,40.87
2022-11-21T09:02:44.751Z,33.67
2022-11-21T09:05:46.412Z,32.97
2022-11-21T09:08:48.080Z,36.10
2022-11-21T09:11:49.770Z,36.70
2022-11-21T09:15:09.854Z,36.63
2022-11-21T09:18:11.811Z,40.77
2022-11-21T09:21:17.395Z,35.90
2022-11-21T09:24:19.695Z,37.40
2022-11-21T09:27:21.352Z,37.77
2022-11-21T09:30:23.032Z,35.00
2022-11-21T09:33:24.773Z,29.40
2022-11-21T09:36:26.477Z,41.47
2022-11-21T09:39:28.384Z,38.03
2022-11-21T09:42:39.575Z,36.93
2022-11-21T09:45:52.326Z,31.70
2022-11-21T09:49:00.979Z,40.07
2022-11-21T09:52:02.859Z,33.97
2022-11-21T09:55:30.112Z,45.83
2022-11-21T09:58:35.814Z,37.23
2022-11-21T10:01:38.532Z,32.87
2022-11-21T10:04:40.262Z,40.97
2022-11-21T10:07:43.906Z,36.37
2022-11-21T10:10:55.571Z,44.37
2022-11-21T10:14:27.469Z,47.60
2022-11-21T10:17:54.471Z,43.70
2022-11-21T10:21:33.459Z,48.20
2022-11-21T10:24:53.948Z,40.07
2022-11-21T10:28:07.882Z,51.10
2022-11-21T10:31:13.492Z,52.43
2022-11-21T10:34:30.920Z,44.67
2022-11-21T10:37:38.474Z,46.63
2022-11-21T10:40:48.982Z,46.40
2022-11-21T10:44:19.311Z,48.17
2022-11-21T10:47:30.021Z,43.13
2022-11-21T10:50:35.283Z,44.27
2022-11-21T10:53:55.652Z,47.77
2022-11-21T10:57:12.057Z,45.77
2022-11-21T11:00:13.796Z,45.93
2022-11-21T11:03:18.571Z,44.53
2022-11-21T11:06:29.227Z,44.83
2022-11-21T11:09:33.088Z,41.53
2022-11-21T11:12:53.247Z,57.30
2022-11-21T11:16:00.838Z,42.80
2022-11-21T11:19:08.632Z,46.47
2022-11-21T11:22:28.915Z,61.10
2022-11-21T11:25:34.644Z,46.77
2022-11-21T11:28:37.036Z,51.27
2022-11-21T11:31:43.792Z,52.47
2022-11-21T11:34:54.800Z,52.57
2022-11-21T11:38:03.850Z,57.23
2022-11-21T11:41:56.472Z,60.83
2022-11-21T11:45:33.582Z,57.73
2022-11-21T11:49:03.304Z,52.67
2022-11-21T11:52:03.850Z,59.50
2022-11-21T11:55:08.372Z,62.93
2022-11-21T11:58:42.478Z,61.47
2022-11-21T12:01:59.631Z,64.23
2022-11-21T12:05:09.199Z,59.63
2022-11-21T12:12:09.596Z,72.73
2022-11-21T12:15:36.125Z,60.23
2022-11-21T12:18:51.190Z,59.57
2022-11-21T12:21:53.412Z,62.07
2022-11-21T12:24:55.100Z,57.70
2022-11-21T12:27:58.275Z,60.17
2022-11-21T12:31:19.188Z,61.23
2022-11-21T12:34:51.422Z,56.60
2022-11-21T12:38:45.227Z,52.10
2022-11-21T12:42:23.035Z,49.83
2022-11-21T12:45:27.251Z,49.00
2022-11-21T12:49:23.902Z,52.40
2022-11-21T12:52:52.012Z,62.70
2022-11-21T12:56:02.684Z,60.07
2022-11-21T12:59:04.719Z,51.93
2022-11-21T13:02:24.956Z,50.10
2022-11-21T13:05:34.599Z,58.60
2022-11-21T13:08:37.875Z,52.97
2022-11-21T13:12:00.037Z,54.07
2022-11-21T13:15:16.243Z,45.20
2022-11-21T13:18:29.977Z,52.50
2022-11-21T13:21:49.648Z,52.43
2022-11-21T13:24:57.585Z,49.93
2022-11-21T13:28:17.222Z,52.03
2022-11-21T13:31:32.911Z,53.43
2022-11-21T13:34:37.738Z,54.00
2022-11-21T13:38:02.745Z,61.43
2022-11-21T13:41:33.839Z,57.27
2022-11-21T13:44:41.867Z,46.27
2022-11-21T13:48:36.330Z,46.90
2022-11-21T13:51:52.353Z,48.33
2022-11-21T13:55:15.338Z,51.13
2022-11-21T13:58:47.081Z,55.53
2022-11-21T14:02:26.020Z,53.53
2022-11-21T14:05:48.553Z,56.03
2022-11-21T14:09:21.494Z,51.23
2022-11-21T14:12:44.286Z,51.80
2022-11-21T14:15:47.148Z,55.33
2022-11-21T14:18:49.512Z,65.37
2022-11-21T14:21:51.227Z,63.63
2022-11-21T14:24:54.662Z,57.53
2022-11-21T14:27:56.796Z,50.40
2022-11-21T14:31:03.894Z,64.40
2022-11-21T14:34:05.535Z,58.77
2022-11-21T14:37:07.543Z,60.90
2022-11-21T14:40:13.779Z,65.03
2022-11-21T14:43:33.340Z,58.03
2022-11-21T14:46:36.507Z,61.60
2022-11-21T14:49:38.176Z,56.03
2022-11-21T14:52:39.988Z,53.50
2022-11-21T14:55:42.340Z,62.20
2022-11-21T14:58:44.009Z,63.87
2022-11-21T15:01:59.551Z,56.23
2022-11-21T15:05:07.386Z,60.17
2022-11-21T15:08:40.039Z,63.60
2022-11-21T15:12:01.172Z,50.00
2022-11-21T15:15:24.524Z,54.70
2022-11-21T15:18:28.767Z,51.70
2022-11-21T15:21:30.480Z,44.83
2022-11-21T15:24:42.207Z,46.43
2022-11-21T15:28:09.210Z,51.03
2022-11-21T15:31:21.392Z,48.37
2022-11-21T15:34:35.361Z,42.97
2022-11-21T15:37:37.707Z,48.67
2022-11-21T15:40:42.948Z,35.27
2022-11-21T15:43:52.118Z,41.30
2022-11-21T15:46:53.807Z,36.33
2022-11-21T15:49:55.498Z,39.27
2022-11-21T15:52:57.147Z,45.97
2022-11-21T15:55:58.796Z,36.30
2022-11-21T15:59:00.455Z,33.97
2022-11-21T16:02:02.114Z,32.33
2022-11-21T16:05:03.993Z,33.10
2022-11-21T16:08:06.355Z,39.53
2022-11-21T16:11:15.848Z,35.47
2022-11-21T16:14:18.333Z,29.37
2022-11-21T16:17:20.191Z,25.83
2022-11-21T16:20:21.871Z,25.47
2022-11-21T16:23:23.549Z,31.00
2022-11-21T16:26:27.846Z,26.70
2022-11-21T16:29:29.804Z,29.90
2022-11-21T16:32:31.856Z,29.50
2022-11-21T16:35:33.500Z,25.07
2022-11-21T16:38:35.160Z,28.97
2022-11-21T16:41:36.928Z,31.27
2022-11-21T16:44:38.565Z,28.67
2022-11-21T16:47:43.088Z,30.47
2022-11-21T16:50:49.977Z,27.00
2022-11-21T16:53:52.010Z,30.83
2022-11-21T16:56:53.663Z,28.97
2022-11-21T16:59:57.669Z,26.80
2022-11-21T17:03:01.002Z,28.40
2022-11-21T17:06:02.671Z,36.40
2022-11-21T17:09:04.385Z,25.60
2022-11-21T17:12:06.286Z,27.73
2022-11-21T17:15:14.865Z,24.10
2022-11-21T17:18:16.495Z,21.97
2022-11-21T17:21:18.139Z,21.40
2022-11-21T17:24:19.827Z,23.50
2022-11-21T17:27:22.899Z,22.97
2022-11-21T17:30:24.540Z,20.73
2022-11-21T17:33:26.468Z,27.80
2022-11-21T17:36:30.218Z,23.50
2022-11-21T17:39:32.476Z,25.70
2022-11-21T17:42:34.533Z,27.10
2022-11-21T17:45:36.167Z,17.97
2022-11-21T17:48:38.630Z,28.03
2022-11-21T17:51:40.806Z,26.13
2022-11-21T17:54:42.434Z,24.07
2022-11-21T17:57:44.132Z,25.77
2022-11-21T18:00:45.790Z,20.90
2022-11-21T18:03:53.163Z,27.70
2022-11-21T18:06:54.984Z,27.43
2022-11-21T18:10:09.263Z,29.43
2022-11-21T18:13:18.256Z,25.10
2022-11-21T18:16:23.203Z,21.60
2022-11-21T18:19:24.852Z,23.03
2022-11-21T18:22:29.659Z,19.03
2022-11-21T18:25:35.335Z,20.90
2022-11-21T18:28:37.007Z,20.53
2022-11-21T18:31:38.896Z,24.10
2022-11-21T18:34:40.782Z,20.23
2022-11-21T18:37:42.450Z,20.30
2022-11-21T18:40:44.124Z,20.10
2022-11-21T18:43:53.676Z,28.43
2022-11-21T18:46:55.309Z,28.83
2022-11-21T18:49:57.089Z,27.70
2022-11-21T18:52:58.864Z,23.63
2022-11-21T18:56:08.702Z,27.80
2022-11-21T18:59:10.806Z,27.73
2022-11-21T19:02:12.503Z,24.47
2022-11-21T19:05:20.216Z,26.97
2022-11-21T19:08:22.419Z,25.47
2022-11-21T19:11:26.243Z,25.80
2022-11-21T19:14:28.160Z,25.17
2022-11-21T19:17:29.988Z,20.47
2022-11-21T19:20:34.863Z,22.23
2022-11-21T19:23:42.445Z,19.97
2022-11-21T19:26:50.407Z,24.93
2022-11-21T19:29:59.367Z,22.87
2022-11-21T19:33:14.003Z,22.10
2022-11-21T19:36:17.530Z,21.57
2022-11-21T19:39:19.326Z,25.37
2022-11-21T19:42:21.738Z,23.33
2022-11-21T19:45:37.931Z,18.07
2022-11-21T19:48:42.860Z,17.63
2022-11-21T19:51:44.767Z,19.00
2022-11-21T19:54:46.492Z,21.17
2022-11-21T19:57:48.197Z,16.23
2022-11-21T20:00:50.263Z,19.40
2022-11-21T20:03:54.892Z,17.83
2022-11-21T20:06:57.424Z,19.07
2022-11-21T20:09:59.340Z,14.60
2022-11-21T20:13:01.662Z,13.17
2022-11-21T20:16:03.755Z,17.57
2022-11-21T20:19:14.799Z,14.23
2022-11-21T20:22:16.510Z,13.50
2022-11-21T20:25:18.470Z,15.67
2022-11-21T20:28:20.475Z,12.27
2022-11-21T20:31:28.059Z,12.60
2022-11-21T20:34:30.091Z,11.33
2022-11-21T20:37:32.146Z,15.37
2022-11-21T20:40:37.334Z,9.03
2022-11-21T20:44:34.351Z,10.93
2022-11-21T20:47:05.748Z,8.47
2022-11-21T20:50:07.713Z,9.10
2022-11-21T20:56:35.897Z,10.07
2022-11-21T20:59:37.695Z,12.57
2022-11-21T21:02:39.446Z,12.57
2022-11-21T21:05:41.149Z,9.67
2022-11-21T21:08:43.041Z,11.43
2022-11-21T21:11:52.040Z,10.23
2022-11-21T21:14:54.540Z,8.47
2022-11-21T21:17:56.236Z,8.97
2022-11-21T21:21:16.516Z,10.03
2022-11-21T21:24:18.947Z,9.80
2022-11-21T21:27:20.668Z,9.57
2022-11-21T21:30:22.373Z,13.07
2022-11-21T21:33:24.059Z,15.07
2022-11-21T21:36:26.684Z,9.60
2022-11-21T21:39:28.432Z,8.27
2022-11-21T21:42:30.122Z,7.80
2022-11-21T21:45:32.208Z,6.03
2022-11-21T21:48:34.435Z,7.30
2022-11-21T21:51:39.916Z,6.83
2022-11-21T21:54:41.937Z,11.13
2022-11-21T21:57:48.275Z,12.67
2022-11-21T22:00:52.888Z,8.70
2022-11-21T22:03:56.950Z,6.00
2022-11-21T22:07:00.158Z,10.80
2022-11-21T22:10:02.913Z,6.13
2022-11-21T22:13:04.654Z,6.40
2022-11-21T22:16:07.768Z,6.10
2022-11-21T22:19:09.976Z,9.23
2022-11-21T22:22:11.748Z,6.17
2022-11-21T22:25:13.458Z,6.30
2022-11-21T22:28:15.291Z,7.33
2022-11-21T22:31:17.532Z,11.23
2022-11-21T22:34:19.185Z,6.33
2022-11-21T22:37:20.835Z,5.60
2022-11-21T22:40:22.459Z,8.97
2022-11-21T22:43:24.102Z,6.47
2022-11-21T22:46:28.053Z,8.50
2022-11-21T22:49:29.663Z,10.17
2022-11-21T22:52:32.081Z,6.87
2022-11-21T22:55:33.820Z,6.40
2022-11-21T22:58:38.416Z,8.47
2022-11-21T23:01:40.164Z,5.70
2022-11-21T23:04:41.858Z,12.53
2022-11-21T23:07:44.824Z,7.37
2022-11-21T23:10:46.524Z,9.50
2022-11-21T23:13:49.174Z,9.63
2022-11-21T23:16:51.214Z,9.97
2022-11-21T23:19:52.847Z,9.60
2022-11-21T23:22:56.488Z,10.03
2022-11-21T23:25:58.189Z,7.53
2022-11-21T23:29:05.077Z,7.63
2022-11-21T23:32:09.782Z,8.27
2022-11-21T23:35:11.450Z,7.67
2022-11-21T23:38:15.006Z,5.23
2022-11-21T23:41:16.639Z,7.00
2022-11-21T23:44:18.295Z,10.27
2022-11-21T23:47:20.001Z,9.37
2022-11-21T23:50:21.686Z,9.60
2022-11-21T23:53:23.396Z,5.87
2022-11-21T23:56:25.064Z,12.10
2022-11-21T23:59:27.197Z,6.73
